Terminal Aerodrome Forecast
Issued by NWS

Home | Current Version | Previous Version | Text Only | Print | Product List | Glossary On
Versions: 1 2 3 4 5 6 7 8 9 10 11 12 13 14 15
000
FTUS41 KBGM 300500 RRA
TAFITH
TAF
KITH 300545Z 3006/0106 VRB03KT P6SM SKC
      TEMPO 3009/3013 3SM BR
     FM301400 16005KT P6SM SCT040 BKN150
     FM301800 16005KT P6SM BKN040 PROB30 3021/0101 3SM SHRA BR
      OVC025
     FM010300 VRB03KT 3SM BR SCT002 BKN070=

USA.gov is the U.S. government's official web portal to all federal, state and local government web resources and services.